Private Wetterstation Sandau
Wetterdaten: Freitag, 06.01.2012
Datum Zeit Temp. A. Feuchte A. Luftdruck Regen Wind Richtung Richtung Taupunkt Windchill
06.01.2012 00:02 3,5 C 87 % 988,1 hPa 0,0 l/m 18,4 km/h (3 Bft) NW 315 1,5 C -0,6 C
06.01.2012 00:07 3,6 C 88 % 988,2 hPa 0,0 l/m 13,7 km/h (3 Bft) W-NW 292 1,8 C 0,2 C
06.01.2012 00:12 3,6 C 88 % 988,2 hPa 0,5 l/m 15,8 km/h (3 Bft) W-NW 292 1,8 C -0,1 C
06.01.2012 00:17 3,8 C 88 % 988,4 hPa 0,0 l/m 36,0 km/h (5 Bft) W-NW 292 2,0 C -2,0 C
06.01.2012 00:22 3,9 C 88 % 988,5 hPa 0,0 l/m 16,6 km/h (3 Bft) NW 315 2,1 C 0,1 C
06.01.2012 00:27 3,9 C 88 % 988,4 hPa 0,0 l/m 10,4 km/h (2 Bft) NW 315 2,1 C 1,3 C
06.01.2012 00:32 4,1 C 88 % 988,6 hPa 0,0 l/m 24,5 km/h (4 Bft) W-NW 292 2,3 C -0,6 C
06.01.2012 00:37 4,1 C 88 % 988,8 hPa 0,0 l/m 25,2 km/h (4 Bft) W-NW 292 2,3 C -0,7 C
06.01.2012 00:42 4,2 C 88 % 988,8 hPa 0,0 l/m 24,5 km/h (4 Bft) W 270 2,4 C -0,5 C
06.01.2012 00:47 4,3 C 88 % 988,9 hPa 0,0 l/m 14,8 km/h (3 Bft) W 270 2,5 C 0,9 C
06.01.2012 00:52 4,4 C 87 % 989,1 hPa 0,0 l/m 14,4 km/h (3 Bft) W-NW 292 2,4 C 1,1 C
06.01.2012 00:57 4,4 C 87 % 989,3 hPa 0,0 l/m 21,2 km/h (4 Bft) NW 315 2,4 C 0,2 C
06.01.2012 01:02 4,4 C 87 % 989,4 hPa 0,0 l/m 19,1 km/h (3 Bft) NW 315 2,4 C 0,4 C
06.01.2012 01:07 4,4 C 87 % 989,4 hPa 0,0 l/m 14,8 km/h (3 Bft) NW 315 2,4 C 1,0 C
06.01.2012 01:12 4,5 C 86 % 989,5 hPa 0,0 l/m 16,6 km/h (3 Bft) W-NW 292 2,4 C 0,9 C
06.01.2012 01:17 4,5 C 86 % 989,8 hPa 0,0 l/m 10,8 km/h (2 Bft) W-NW 292 2,4 C 1,9 C
06.01.2012 01:22 4,5 C 87 % 990,2 hPa 0,5 l/m 19,1 km/h (3 Bft) W-NW 292 2,5 C 0,5 C
06.01.2012 01:27 4,4 C 87 % 990,1 hPa 0,0 l/m 7,6 km/h (2 Bft) W-NW 292 2,4 C 2,5 C
06.01.2012 01:32 4,4 C 87 % 990,2 hPa 0,0 l/m 12,2 km/h (2 Bft) W 270 2,4 C 1,5 C
06.01.2012 01:37 4,4 C 87 % 990,3 hPa 0,0 l/m 19,1 km/h (3 Bft) W-NW 292 2,4 C 0,4 C
06.01.2012 01:42 4,4 C 87 % 990,5 hPa 0,0 l/m 10,8 km/h (2 Bft) W 270 2,4 C 1,8 C
06.01.2012 01:47 4,4 C 87 % 990,6 hPa 0,0 l/m 15,5 km/h (3 Bft) NW 315 2,4 C 0,9 C
06.01.2012 01:52 4,4 C 86 % 990,4 hPa 0,0 l/m 14,4 km/h (3 Bft) W-NW 292 2,3 C 1,1 C
06.01.2012 01:57 4,4 C 86 % 990,7 hPa 0,0 l/m 18,4 km/h (3 Bft) N-NW 337 2,3 C 0,5 C
06.01.2012 02:02 4,3 C 86 % 990,8 hPa 0,0 l/m 12,2 km/h (2 Bft) W 270 2,2 C 1,4 C
06.01.2012 02:07 4,3 C 85 % 991,0 hPa 0,0 l/m 10,4 km/h (2 Bft) NW 315 2,0 C 1,7 C
06.01.2012 02:12 4,2 C 85 % 991,3 hPa 0,0 l/m 23,4 km/h (4 Bft) N-NW 337 1,9 C -0,3 C
06.01.2012 02:17 4,2 C 85 % 991,6 hPa 0,0 l/m 19,8 km/h (3 Bft) N-NW 337 1,9 C 0,1 C
06.01.2012 02:22 4,2 C 85 % 991,8 hPa 0,0 l/m 14,4 km/h (3 Bft) NW 315 1,9 C 0,9 C
06.01.2012 02:27 4,2 C 85 % 991,8 hPa 0,0 l/m 4,7 km/h (1 Bft) NW 315 1,9 C 3,3 C
06.01.2012 02:32 4,2 C 85 % 992,1 hPa 0,0 l/m 18,7 km/h (3 Bft) NW 315 1,9 C 0,2 C
06.01.2012 02:37 4,3 C 84 % 992,2 hPa 0,0 l/m 11,2 km/h (2 Bft) W-NW 292 1,8 C 1,6 C
06.01.2012 02:42 4,3 C 84 % 992,3 hPa 0,0 l/m 6,5 km/h (2 Bft) O-NO 67 1,8 C 2,8 C
06.01.2012 02:47 4,3 C 84 % 992,3 hPa 0,0 l/m 9,4 km/h (2 Bft) N 360 1,8 C 2,0 C
06.01.2012 02:52 4,3 C 83 % 992,7 hPa 0,0 l/m 6,5 km/h (2 Bft) NW 315 1,7 C 2,8 C
06.01.2012 02:57 4,3 C 83 % 992,8 hPa 0,0 l/m 19,8 km/h (3 Bft) NO 45 1,7 C 0,2 C
06.01.2012 03:02 4,3 C 82 % 992,9 hPa 0,0 l/m 10,4 km/h (2 Bft) O-NO 67 1,5 C 1,7 C
06.01.2012 03:07 4,3 C 81 % 992,9 hPa 0,0 l/m 9,7 km/h (2 Bft) O-NO 67 1,3 C 1,9 C
06.01.2012 03:12 4,2 C 80 % 993,1 hPa 0,0 l/m 13,0 km/h (3 Bft) N-NO 22 1,1 C 1,1 C
06.01.2012 03:17 4,1 C 80 % 993,5 hPa 0,0 l/m 22,0 km/h (4 Bft) NW 315 1,0 C -0,3 C
06.01.2012 03:22 3,9 C 80 % 993,6 hPa 0,0 l/m 9,7 km/h (2 Bft) NO 45 0,8 C 1,4 C
06.01.2012 03:27 3,8 C 80 % 993,9 hPa 0,0 l/m 13,3 km/h (3 Bft) N 360 0,7 C 0,6 C
06.01.2012 03:32 3,8 C 81 % 994,1 hPa 0,0 l/m 9,7 km/h (2 Bft) N 360 0,8 C 1,3 C
06.01.2012 03:37 3,7 C 81 % 994,3 hPa 0,0 l/m 5,4 km/h (1 Bft) N 360 0,7 C 2,4 C
06.01.2012 03:42 3,6 C 80 % 994,5 hPa 0,0 l/m 4,0 km/h (1 Bft) N 360 0,5 C 3,6 C
06.01.2012 03:47 3,6 C 80 % 994,6 hPa 0,0 l/m 7,6 km/h (2 Bft) N-NW 337 0,5 C 1,6 C
06.01.2012 03:52 3,6 C 79 % 994,8 hPa 0,0 l/m 9,4 km/h (2 Bft) N 360 0,3 C 1,1 C
06.01.2012 03:57 3,6 C 79 % 995,1 hPa 0,0 l/m 11,9 km/h (2 Bft) N 360 0,3 C 0,6 C
06.01.2012 04:02 3,6 C 79 % 995,0 hPa 0,0 l/m 7,9 km/h (2 Bft) W-SW 247 0,3 C 1,5 C
06.01.2012 04:07 3,6 C 79 % 995,0 hPa 0,0 l/m 10,8 km/h (2 Bft) N-NO 22 0,3 C 0,8 C
06.01.2012 04:12 3,4 C 79 % 995,3 hPa 0,0 l/m 14,0 km/h (3 Bft) N 360 0,1 C -0,1 C
06.01.2012 04:17 3,4 C 79 % 995,6 hPa 0,0 l/m 7,2 km/h (2 Bft) W 270 0,1 C 1,5 C
06.01.2012 04:22 3,3 C 79 % 995,7 hPa 0,0 l/m 12,2 km/h (2 Bft) N 360 0,0 C 0,2 C
06.01.2012 04:27 3,3 C 79 % 995,8 hPa 0,0 l/m 11,9 km/h (2 Bft) N-NO 22 0,0 C 0,2 C
06.01.2012 04:32 3,2 C 79 % 996,0 hPa 0,0 l/m 9,0 km/h (2 Bft) W 270 -0,1 C 0,8 C
06.01.2012 04:37 3,2 C 79 % 996,3 hPa 0,0 l/m 4,3 km/h (1 Bft) O-NO 67 -0,1 C 3,2 C
06.01.2012 04:42 3,2 C 80 % 996,4 hPa 0,0 l/m 4,7 km/h (1 Bft) N 360 0,1 C 2,2 C
06.01.2012 04:47 3,1 C 80 % 996,5 hPa 0,0 l/m 9,4 km/h (2 Bft) NW 315 -0,0 C 0,5 C
06.01.2012 04:52 3,0 C 80 % 996,7 hPa 0,0 l/m 7,2 km/h (2 Bft) N-NW 337 -0,1 C 1,0 C
06.01.2012 04:57 2,9 C 80 % 996,8 hPa 0,0 l/m 9,4 km/h (2 Bft) NW 315 -0,2 C 0,3 C
06.01.2012 05:02 2,8 C 81 % 997,1 hPa 0,0 l/m 16,9 km/h (3 Bft) W-NW 292 -0,1 C -1,3 C
06.01.2012 05:07 2,8 C 81 % 997,3 hPa 0,0 l/m 8,3 km/h (2 Bft) W-NW 292 -0,1 C 0,5 C
06.01.2012 05:12 2,7 C 81 % 997,4 hPa 0,0 l/m 17,3 km/h (3 Bft) NW 315 -0,2 C -1,5 C
06.01.2012 05:17 2,7 C 81 % 997,6 hPa 0,0 l/m 13,3 km/h (3 Bft) W-NW 292 -0,2 C -0,8 C
06.01.2012 05:22 2,8 C 82 % 997,9 hPa 0,0 l/m 5,8 km/h (2 Bft) N 360 0,0 C 1,3 C
06.01.2012 05:27 2,8 C 82 % 998,0 hPa 0,0 l/m 22,7 km/h (4 Bft) W-NW 292 0,0 C -2,0 C
06.01.2012 05:32 2,8 C 82 % 998,1 hPa 0,0 l/m 19,1 km/h (3 Bft) NW 315 0,0 C -1,6 C
06.01.2012 05:37 2,8 C 82 % 998,3 hPa 0,0 l/m 4,0 km/h (1 Bft) NW 315 0,0 C 2,8 C
06.01.2012 05:42 2,7 C 82 % 998,4 hPa 0,0 l/m 18,0 km/h (3 Bft) W-NW 292 -0,1 C -1,6 C
06.01.2012 05:47 2,6 C 82 % 998,6 hPa 0,0 l/m 6,5 km/h (2 Bft) W 270 -0,2 C 0,8 C
06.01.2012 05:52 2,6 C 82 % 998,6 hPa 0,0 l/m 8,3 km/h (2 Bft) NW 315 -0,2 C 0,2 C
06.01.2012 05:57 2,5 C 82 % 998,7 hPa 0,0 l/m 18,4 km/h (3 Bft) NW 315 -0,3 C -1,9 C
06.01.2012 06:02 2,4 C 82 % 998,9 hPa 0,0 l/m 9,0 km/h (2 Bft) NW 315 -0,4 C -0,2 C
06.01.2012 06:07 2,4 C 83 % 999,1 hPa 0,0 l/m 15,8 km/h (3 Bft) NW 315 -0,2 C -1,6 C
06.01.2012 06:12 2,3 C 83 % 999,2 hPa 0,0 l/m 11,9 km/h (2 Bft) W 270 -0,3 C -1,0 C
06.01.2012 06:17 2,3 C 83 % 999,2 hPa 0,0 l/m 12,6 km/h (3 Bft) W 270 -0,3 C -1,1 C
06.01.2012 06:22 2,2 C 83 % 999,2 hPa 0,0 l/m 5,8 km/h (2 Bft) W-NW 292 -0,4 C 0,6 C
06.01.2012 06:27 2,1 C 83 % 999,3 hPa 0,0 l/m 14,8 km/h (3 Bft) W 270 -0,5 C -1,8 C
06.01.2012 06:32 2,1 C 83 % 999,4 hPa 0,0 l/m 14,4 km/h (3 Bft) NW 315 -0,5 C -1,7 C
06.01.2012 06:37 1,9 C 83 % 999,8 hPa 0,0 l/m 9,4 km/h (2 Bft) W-NW 292 -0,7 C -0,9 C
06.01.2012 06:42 1,9 C 84 % 1000,0 hPa 0,0 l/m 11,2 km/h (2 Bft) N-NW 337 -0,5 C -1,3 C
06.01.2012 06:47 1,8 C 84 % 1000,3 hPa 0,0 l/m 7,2 km/h (2 Bft) W-NW 292 -0,6 C -0,4 C
06.01.2012 06:52 1,9 C 84 % 1000,5 hPa 0,0 l/m 9,7 km/h (2 Bft) W-NW 292 -0,5 C -1,0 C
06.01.2012 06:57 1,9 C 85 % 1000,7 hPa 0,0 l/m 4,0 km/h (1 Bft) SO 135 -0,3 C 1,9 C
06.01.2012 07:02 1,9 C 85 % 1000,7 hPa 0,0 l/m 8,3 km/h (2 Bft) N-NW 337 -0,3 C -0,6 C
06.01.2012 07:07 1,9 C 85 % 1001,0 hPa 0,0 l/m 10,8 km/h (2 Bft) W-NW 292 -0,3 C -1,2 C
06.01.2012 07:12 1,8 C 85 % 1000,9 hPa 0,0 l/m 15,1 km/h (3 Bft) W 270 -0,4 C -2,2 C
06.01.2012 07:17 1,8 C 85 % 1001,0 hPa 0,0 l/m 10,4 km/h (2 Bft) NW 315 -0,4 C -1,3 C
06.01.2012 07:22 1,7 C 85 % 1001,3 hPa 0,0 l/m 8,3 km/h (2 Bft) W-NW 292 -0,5 C -0,8 C
06.01.2012 07:27 1,6 C 85 % 1001,5 hPa 0,0 l/m 9,0 km/h (2 Bft) NW 315 -0,6 C -1,1 C
06.01.2012 07:32 1,6 C 85 % 1001,5 hPa 0,0 l/m 19,1 km/h (3 Bft) N-NW 337 -0,6 C -3,1 C
06.01.2012 07:37 1,6 C 85 % 1001,6 hPa 0,0 l/m 10,1 km/h (2 Bft) W-NW 292 -0,6 C -1,4 C
06.01.2012 07:42 1,5 C 85 % 1001,6 hPa 0,0 l/m 8,3 km/h (2 Bft) W-NW 292 -0,7 C -1,1 C
06.01.2012 07:47 1,5 C 85 % 1001,7 hPa 0,0 l/m 7,6 km/h (2 Bft) NW 315 -0,7 C -0,9 C
06.01.2012 07:52 1,5 C 86 % 1002,0 hPa 0,0 l/m 11,9 km/h (2 Bft) W-NW 292 -0,6 C -2,0 C
06.01.2012 07:57 1,4 C 86 % 1002,0 hPa 0,0 l/m 14,4 km/h (3 Bft) NW 315 -0,7 C -2,6 C
06.01.2012 08:02 1,3 C 86 % 1002,3 hPa 0,0 l/m 1,4 km/h (1 Bft) W-NW 292 -0,8 C 1,3 C
06.01.2012 08:07 1,3 C 86 % 1002,7 hPa 0,0 l/m 8,6 km/h (2 Bft) W-NW 292 -0,8 C -1,4 C
06.01.2012 08:12 1,3 C 86 % 1002,9 hPa 0,0 l/m 6,1 km/h (2 Bft) W-NW 292 -0,8 C -0,6 C
06.01.2012 08:17 1,3 C 86 % 1003,3 hPa 0,0 l/m 11,9 km/h (2 Bft) N-NW 337 -0,8 C -2,2 C
06.01.2012 08:22 1,3 C 86 % 1003,3 hPa 0,0 l/m 5,4 km/h (1 Bft) N-NW 337 -0,8 C -0,3 C
06.01.2012 08:27 1,3 C 86 % 1003,5 hPa 0,0 l/m 10,4 km/h (2 Bft) NW 315 -0,8 C -1,9 C
06.01.2012 08:32 1,3 C 86 % 1003,8 hPa 0,0 l/m 4,0 km/h (1 Bft) N 360 -0,8 C 1,3 C
06.01.2012 08:37 1,3 C 87 % 1004,0 hPa 0,0 l/m 18,7 km/h (3 Bft) W-NW 292 -0,6 C -3,4 C
06.01.2012 08:42 1,4 C 87 % 1004,2 hPa 0,0 l/m 5,8 km/h (2 Bft) N-NW 337 -0,5 C -0,3 C
06.01.2012 08:47 1,5 C 87 % 1004,4 hPa 0,0 l/m 6,8 km/h (2 Bft) NW 315 -0,4 C -0,6 C
06.01.2012 08:52 1,5 C 86 % 1004,6 hPa 0,0 l/m 7,6 km/h (2 Bft) W-NW 292 -0,6 C -0,9 C
06.01.2012 08:57 1,5 C 86 % 1004,7 hPa 0,0 l/m 8,6 km/h (2 Bft) NW 315 -0,6 C -1,2 C
06.01.2012 09:02 1,5 C 86 % 1004,9 hPa 0,0 l/m 4,7 km/h (1 Bft) NW 315 -0,6 C 0,2 C
06.01.2012 09:07 1,4 C 86 % 1005,1 hPa 0,0 l/m 7,2 km/h (2 Bft) W 270 -0,7 C -0,8 C
06.01.2012 09:12 1,5 C 86 % 1005,2 hPa 0,0 l/m 11,5 km/h (2 Bft) N-NW 337 -0,6 C -1,9 C
06.01.2012 09:17 1,4 C 86 % 1005,3 hPa 0,0 l/m 10,1 km/h (2 Bft) W-NW 292 -0,7 C -1,7 C
06.01.2012 09:22 1,4 C 86 % 1005,5 hPa 0,0 l/m 0,0 km/h (0 Bft) NO 45 -0,7 C 1,4 C
06.01.2012 09:27 1,4 C 86 % 1005,5 hPa 0,0 l/m 5,4 km/h (1 Bft) NW 315 -0,7 C -0,2 C
06.01.2012 09:32 1,4 C 86 % 1005,6 hPa 0,0 l/m 9,4 km/h (2 Bft) W 270 -0,7 C -1,5 C
06.01.2012 09:37 1,6 C 87 % 1005,9 hPa 0,0 l/m 19,1 km/h (3 Bft) NW 315 -0,3 C -3,1 C
06.01.2012 09:42 1,6 C 87 % 1006,1 hPa 0,0 l/m 10,1 km/h (2 Bft) N-NW 337 -0,3 C -1,4 C
06.01.2012 09:47 1,8 C 87 % 1006,2 hPa 0,0 l/m 22,7 km/h (4 Bft) NW 315 -0,1 C -3,3 C
06.01.2012 09:52 1,8 C 87 % 1006,5 hPa 0,0 l/m 9,7 km/h (2 Bft) NW 315 -0,1 C -1,1 C
06.01.2012 09:57 1,9 C 86 % 1006,8 hPa 0,0 l/m 6,5 km/h (2 Bft) N-NW 337 -0,2 C -0,0 C
06.01.2012 10:02 1,9 C 86 % 1007,0 hPa 0,0 l/m 7,2 km/h (2 Bft) NO 45 -0,2 C -0,3 C
06.01.2012 10:07 2,1 C 86 % 1007,0 hPa 0,0 l/m 10,4 km/h (2 Bft) NW 315 0,0 C -0,9 C
06.01.2012 10:12 2,1 C 86 % 1007,3 hPa 0,0 l/m 9,7 km/h (2 Bft) N-NW 337 0,0 C -0,7 C
06.01.2012 10:17 2,1 C 86 % 1007,4 hPa 0,0 l/m 5,4 km/h (1 Bft) W-NW 292 0,0 C 0,6 C
06.01.2012 10:22 2,1 C 86 % 1007,4 hPa 0,0 l/m 6,5 km/h (2 Bft) NW 315 0,0 C 0,2 C
06.01.2012 10:27 2,1 C 86 % 1007,5 hPa 0,0 l/m 7,6 km/h (2 Bft) W 270 0,0 C -0,2 C
06.01.2012 10:32 2,1 C 86 % 1007,7 hPa 0,0 l/m 14,0 km/h (3 Bft) W-NW 292 0,0 C -1,6 C
06.01.2012 10:37 2,1 C 86 % 1007,7 hPa 0,0 l/m 16,6 km/h (3 Bft) NW 315 0,0 C -2,1 C
06.01.2012 10:42 2,2 C 86 % 1008,0 hPa 0,0 l/m 4,3 km/h (1 Bft) N-NW 337 0,1 C 2,2 C
06.01.2012 10:47 2,3 C 86 % 1008,1 hPa 0,0 l/m 10,4 km/h (2 Bft) W-NW 292 0,2 C -0,7 C
06.01.2012 10:52 2,4 C 86 % 1008,0 hPa 0,0 l/m 7,6 km/h (2 Bft) N 360 0,3 C 0,2 C
06.01.2012 10:57 2,4 C 85 % 1008,0 hPa 0,0 l/m 11,2 km/h (2 Bft) W 270 0,1 C -0,7 C
06.01.2012 11:02 2,4 C 85 % 1008,4 hPa 0,0 l/m 11,2 km/h (2 Bft) W 270 0,1 C -0,7 C
06.01.2012 11:07 2,5 C 85 % 1008,4 hPa 0,0 l/m 11,5 km/h (2 Bft) NW 315 0,2 C -0,7 C
06.01.2012 11:12 2,6 C 85 % 1008,6 hPa 0,0 l/m 7,2 km/h (2 Bft) NW 315 0,3 C 0,6 C
06.01.2012 11:17 2,6 C 85 % 1008,6 hPa 0,0 l/m 3,6 km/h (1 Bft) NW 315 0,3 C 2,6 C
06.01.2012 11:22 2,6 C 85 % 1008,7 hPa 0,0 l/m 6,5 km/h (2 Bft) W 270 0,3 C 0,8 C
06.01.2012 11:27 2,7 C 84 % 1008,9 hPa 0,0 l/m 12,6 km/h (3 Bft) W-NW 292 0,3 C -0,6 C
06.01.2012 11:32 2,8 C 84 % 1009,1 hPa 0,0 l/m 4,7 km/h (1 Bft) N 360 0,4 C 1,7 C
06.01.2012 11:37 2,8 C 84 % 1009,3 hPa 0,0 l/m 8,3 km/h (2 Bft) NW 315 0,4 C 0,5 C
06.01.2012 11:42 2,8 C 84 % 1009,2 hPa 0,0 l/m 10,8 km/h (2 Bft) NW 315 0,4 C -0,2 C
06.01.2012 11:47 2,8 C 84 % 1009,3 hPa 0,0 l/m 9,4 km/h (2 Bft) NW 315 0,4 C 0,2 C
06.01.2012 11:52 2,9 C 84 % 1009,4 hPa 0,0 l/m 6,1 km/h (2 Bft) W 270 0,5 C 1,3 C
06.01.2012 11:57 2,9 C 84 % 1009,6 hPa 0,0 l/m 8,3 km/h (2 Bft) NW 315 0,5 C 0,6 C
06.01.2012 12:02 2,9 C 83 % 1009,8 hPa 0,0 l/m 7,6 km/h (2 Bft) N-NW 337 0,3 C 0,8 C
06.01.2012 12:07 2,9 C 83 % 1010,0 hPa 0,0 l/m 10,4 km/h (2 Bft) N 360 0,3 C 0,1 C
06.01.2012 12:12 3,0 C 83 % 1010,1 hPa 0,0 l/m 14,0 km/h (3 Bft) W-NW 292 0,4 C -0,5 C
06.01.2012 12:17 3,1 C 83 % 1010,2 hPa 0,0 l/m 12,2 km/h (2 Bft) NW 315 0,5 C -0,1 C
06.01.2012 12:22 3,1 C 83 % 1010,1 hPa 0,0 l/m 18,4 km/h (3 Bft) N-NW 337 0,5 C -1,1 C
06.01.2012 12:27 3,2 C 83 % 1010,2 hPa 0,0 l/m 10,1 km/h (2 Bft) NW 315 0,6 C 0,5 C
06.01.2012 12:32 3,3 C 83 % 1010,3 hPa 0,0 l/m 10,8 km/h (2 Bft) N-NW 337 0,7 C 0,4 C
06.01.2012 12:37 3,3 C 82 % 1010,4 hPa 0,0 l/m 5,0 km/h (1 Bft) O-NO 67 0,5 C 2,2 C
06.01.2012 12:42 3,3 C 82 % 1010,4 hPa 0,0 l/m 8,6 km/h (2 Bft) W 270 0,5 C 1,0 C
06.01.2012 12:47 3,3 C 82 % 1010,5 hPa 0,0 l/m 7,6 km/h (2 Bft) NW 315 0,5 C 1,3 C
06.01.2012 12:52 3,3 C 82 % 1010,6 hPa 0,0 l/m 6,5 km/h (2 Bft) W-NW 292 0,5 C 1,6 C
06.01.2012 12:57 3,3 C 82 % 1010,7 hPa 0,0 l/m 3,6 km/h (1 Bft) W-NW 292 0,5 C 3,3 C
06.01.2012 13:02 3,3 C 82 % 1010,8 hPa 0,0 l/m 14,8 km/h (3 Bft) W-NW 292 0,5 C -0,3 C
06.01.2012 13:07 3,3 C 82 % 1010,7 hPa 0,0 l/m 4,7 km/h (1 Bft) NW 315 0,5 C 2,3 C
06.01.2012 13:12 3,3 C 81 % 1010,9 hPa 0,0 l/m 8,3 km/h (2 Bft) NW 315 0,4 C 1,1 C
06.01.2012 13:17 3,3 C 81 % 1010,9 hPa 0,0 l/m 8,3 km/h (2 Bft) NW 315 0,4 C 1,1 C
06.01.2012 13:22 3,3 C 81 % 1011,1 hPa 0,0 l/m 7,2 km/h (2 Bft) NW 315 0,4 C 1,4 C
06.01.2012 13:27 3,3 C 81 % 1011,2 hPa 0,0 l/m 4,0 km/h (1 Bft) N-NO 22 0,4 C 3,3 C
06.01.2012 13:32 3,3 C 81 % 1011,1 hPa 0,0 l/m 9,7 km/h (2 Bft) W-NW 292 0,4 C 0,7 C
06.01.2012 13:37 3,3 C 81 % 1011,4 hPa 0,0 l/m 10,1 km/h (2 Bft) W-NW 292 0,4 C 0,6 C
06.01.2012 13:42 3,3 C 81 % 1011,6 hPa 0,0 l/m 11,5 km/h (2 Bft) W-NW 292 0,4 C 0,3 C
06.01.2012 13:47 3,4 C 81 % 1011,7 hPa 0,0 l/m 6,8 km/h (2 Bft) NW 315 0,5 C 1,6 C
06.01.2012 13:52 3,4 C 81 % 1011,7 hPa 0,0 l/m 3,6 km/h (1 Bft) W-NW 292 0,5 C 3,4 C
06.01.2012 13:57 3,4 C 81 % 1011,8 hPa 0,0 l/m 2,9 km/h (1 Bft) W-NW 292 0,5 C 3,4 C
06.01.2012 14:02 3,3 C 81 % 1011,9 hPa 0,0 l/m 14,8 km/h (3 Bft) W-NW 292 0,4 C -0,3 C
06.01.2012 14:07 3,3 C 81 % 1012,0 hPa 0,0 l/m 11,5 km/h (2 Bft) NW 315 0,4 C 0,3 C
06.01.2012 14:12 3,3 C 81 % 1012,0 hPa 0,0 l/m 7,9 km/h (2 Bft) NW 315 0,4 C 1,2 C
06.01.2012 14:17 3,3 C 81 % 1012,1 hPa 0,0 l/m 6,5 km/h (2 Bft) NW 315 0,4 C 1,6 C
06.01.2012 14:22 3,3 C 81 % 1012,1 hPa 0,0 l/m 10,8 km/h (2 Bft) W-NW 292 0,4 C 0,4 C
06.01.2012 14:27 3,3 C 81 % 1012,2 hPa 0,0 l/m 8,3 km/h (2 Bft) N 360 0,4 C 1,1 C
06.01.2012 14:32 3,3 C 80 % 1012,2 hPa 0,0 l/m 13,0 km/h (3 Bft) NW 315 0,2 C 0,0 C
06.01.2012 14:37 3,3 C 80 % 1012,4 hPa 0,0 l/m 8,3 km/h (2 Bft) NW 315 0,2 C 1,1 C
06.01.2012 14:42 3,3 C 79 % 1012,6 hPa 0,0 l/m 8,3 km/h (2 Bft) N-NO 22 0,0 C 1,1 C
06.01.2012 14:47 3,4 C 77 % 1012,8 hPa 0,0 l/m 4,7 km/h (1 Bft) N-NW 337 -0,2 C 2,4 C
06.01.2012 14:52 3,4 C 77 % 1012,9 hPa 0,0 l/m 6,1 km/h (2 Bft) N-NW 337 -0,2 C 1,8 C
06.01.2012 14:57 3,4 C 77 % 1012,9 hPa 0,0 l/m 8,6 km/h (2 Bft) NW 315 -0,2 C 1,1 C
06.01.2012 15:02 3,4 C 77 % 1012,9 hPa 0,0 l/m 4,7 km/h (1 Bft) W-NW 292 -0,2 C 2,4 C
06.01.2012 15:07 3,3 C 78 % 1013,1 hPa 0,0 l/m 10,1 km/h (2 Bft) N-NW 337 -0,2 C 0,6 C
06.01.2012 15:12 3,3 C 77 % 1013,1 hPa 0,0 l/m 4,0 km/h (1 Bft) S-SW 202 -0,3 C 3,3 C
06.01.2012 15:17 3,3 C 77 % 1013,1 hPa 0,0 l/m 8,6 km/h (2 Bft) N-NW 337 -0,3 C 1,0 C
06.01.2012 15:22 3,3 C 77 % 1013,4 hPa 0,0 l/m 9,4 km/h (2 Bft) W-NW 292 -0,3 C 0,8 C
06.01.2012 15:27 3,3 C 78 % 1013,6 hPa 0,0 l/m 7,9 km/h (2 Bft) NW 315 -0,2 C 1,2 C
06.01.2012 15:32 3,4 C 78 % 1013,7 hPa 0,0 l/m 10,8 km/h (2 Bft) W 270 -0,1 C 0,6 C
06.01.2012 15:37 3,3 C 78 % 1013,9 hPa 0,0 l/m 12,2 km/h (2 Bft) W 270 -0,2 C 0,2 C
06.01.2012 15:42 3,3 C 78 % 1014,2 hPa 0,0 l/m 12,6 km/h (3 Bft) W-NW 292 -0,2 C 0,1 C
06.01.2012 15:47 3,3 C 79 % 1014,2 hPa 0,0 l/m 7,6 km/h (2 Bft) W-NW 292 0,0 C 1,3 C
06.01.2012 15:52 3,3 C 79 % 1014,5 hPa 0,0 l/m 12,2 km/h (2 Bft) W-NW 292 0,0 C 0,2 C
06.01.2012 15:57 3,3 C 79 % 1014,5 hPa 0,0 l/m 8,6 km/h (2 Bft) W-NW 292 0,0 C 1,0 C
06.01.2012 16:02 3,3 C 79 % 1014,5 hPa 0,0 l/m 11,2 km/h (2 Bft) W 270 0,0 C 0,4 C
06.01.2012 16:07 3,3 C 78 % 1014,4 hPa 0,0 l/m 6,8 km/h (2 Bft) W-NW 292 -0,2 C 1,5 C
06.01.2012 16:12 3,2 C 78 % 1014,2 hPa 0,0 l/m 5,8 km/h (2 Bft) NW 315 -0,3 C 1,7 C
06.01.2012 16:17 3,0 C 78 % 1014,2 hPa 0,0 l/m 11,9 km/h (2 Bft) NW 315 -0,5 C -0,1 C
06.01.2012 16:22 2,9 C 78 % 1014,3 hPa 0,0 l/m 5,4 km/h (1 Bft) N 360 -0,5 C 1,5 C
06.01.2012 16:27 2,8 C 79 % 1014,3 hPa 0,0 l/m 5,4 km/h (1 Bft) W-NW 292 -0,5 C 1,4 C
06.01.2012 16:32 2,6 C 79 % 1014,3 hPa 0,0 l/m 5,0 km/h (1 Bft) NW 315 -0,7 C 1,4 C
06.01.2012 16:37 2,5 C 79 % 1014,4 hPa 0,0 l/m 5,0 km/h (1 Bft) W-NW 292 -0,8 C 1,2 C
06.01.2012 16:42 2,4 C 80 % 1014,3 hPa 0,0 l/m 3,2 km/h (1 Bft) W 270 -0,7 C 2,4 C
06.01.2012 16:47 2,4 C 80 % 1014,4 hPa 0,0 l/m 2,5 km/h (1 Bft) W-NW 292 -0,7 C 2,4 C
06.01.2012 16:52 2,3 C 80 % 1014,5 hPa 0,0 l/m 4,3 km/h (1 Bft) W 270 -0,8 C 2,3 C
06.01.2012 16:57 2,2 C 80 % 1014,5 hPa 0,0 l/m 5,8 km/h (2 Bft) W-NW 292 -0,9 C 0,6 C
06.01.2012 17:02 2,1 C 81 % 1014,5 hPa 0,0 l/m 6,1 km/h (2 Bft) NW 315 -0,8 C 0,4 C
06.01.2012 17:07 2,0 C 80 % 1014,7 hPa 0,0 l/m 4,3 km/h (1 Bft) W 270 -1,1 C 2,0 C
06.01.2012 17:12 1,9 C 80 % 1014,7 hPa 0,0 l/m 4,7 km/h (1 Bft) NW 315 -1,2 C 0,7 C
06.01.2012 17:17 1,9 C 81 % 1014,7 hPa 0,0 l/m 4,3 km/h (1 Bft) W 270 -1,0 C 1,9 C
06.01.2012 17:22 1,8 C 81 % 1014,8 hPa 0,0 l/m 2,9 km/h (1 Bft) W 270 -1,1 C 1,8 C
06.01.2012 17:27 1,8 C 81 % 1014,9 hPa 0,0 l/m 2,5 km/h (1 Bft) W-SW 247 -1,1 C 1,8 C
06.01.2012 17:32 1,8 C 81 % 1015,0 hPa 0,0 l/m 2,5 km/h (1 Bft) W 270 -1,1 C 1,8 C
06.01.2012 17:37 1,6 C 81 % 1015,0 hPa 0,0 l/m 2,5 km/h (1 Bft) W-SW 247 -1,3 C 1,6 C
06.01.2012 17:42 1,6 C 81 % 1015,1 hPa 0,0 l/m 5,4 km/h (1 Bft) W-SW 247 -1,3 C 0,1 C
06.01.2012 17:47 1,6 C 82 % 1014,9 hPa 0,0 l/m 3,6 km/h (1 Bft) W-SW 247 -1,1 C 1,6 C
06.01.2012 17:52 1,6 C 82 % 1014,8 hPa 0,0 l/m 2,5 km/h (1 Bft) W-SW 247 -1,1 C 1,6 C
06.01.2012 17:57 1,5 C 81 % 1014,9 hPa 0,0 l/m 2,2 km/h (1 Bft) W 270 -1,4 C 1,5 C
06.01.2012 18:02 1,5 C 82 % 1015,0 hPa 0,0 l/m 2,5 km/h (1 Bft) W-SW 247 -1,2 C 1,5 C
06.01.2012 18:07 1,4 C 82 % 1015,0 hPa 0,0 l/m 4,3 km/h (1 Bft) W-SW 247 -1,3 C 1,4 C
06.01.2012 18:12 1,3 C 82 % 1015,0 hPa 0,0 l/m 3,2 km/h (1 Bft) W-SW 247 -1,4 C 1,3 C
06.01.2012 18:17 1,3 C 82 % 1015,0 hPa 0,0 l/m 3,2 km/h (1 Bft) W 270 -1,4 C 1,3 C
06.01.2012 18:22 1,3 C 82 % 1015,0 hPa 0,0 l/m 2,5 km/h (1 Bft) W-NW 292 -1,4 C 1,3 C
06.01.2012 18:27 1,3 C 82 % 1015,1 hPa 0,0 l/m 2,5 km/h (1 Bft) W 270 -1,4 C 1,3 C
06.01.2012 18:32 1,3 C 82 % 1015,2 hPa 0,0 l/m 2,2 km/h (1 Bft) W 270 -1,4 C 1,3 C
06.01.2012 18:37 1,3 C 82 % 1015,3 hPa 0,0 l/m 1,8 km/h (1 Bft) W-SW 247 -1,4 C 1,3 C
06.01.2012 18:42 1,3 C 82 % 1015,2 hPa 0,0 l/m 4,7 km/h (1 Bft) W-SW 247 -1,4 C 0,0 C
06.01.2012 18:47 1,3 C 82 % 1015,0 hPa 0,0 l/m 0,0 km/h (0 Bft) W 270 -1,4 C 1,3 C
06.01.2012 18:52 1,3 C 82 % 1015,2 hPa 0,0 l/m 3,6 km/h (1 Bft) W-SW 247 -1,4 C 1,3 C
06.01.2012 18:57 1,3 C 82 % 1015,1 hPa 0,0 l/m 2,5 km/h (1 Bft) W 270 -1,4 C 1,3 C
06.01.2012 19:02 1,2 C 82 % 1015,3 hPa 0,0 l/m 4,3 km/h (1 Bft) W-SW 247 -1,5 C 1,2 C
06.01.2012 19:07 1,2 C 82 % 1015,4 hPa 0,0 l/m 2,5 km/h (1 Bft) W 270 -1,5 C 1,2 C
06.01.2012 19:12 1,1 C 82 % 1015,4 hPa 0,0 l/m 3,6 km/h (1 Bft) W 270 -1,6 C 1,1 C
06.01.2012 19:17 1,1 C 82 % 1015,6 hPa 0,0 l/m 4,7 km/h (1 Bft) W-NW 292 -1,6 C -0,2 C
06.01.2012 19:22 1,1 C 82 % 1015,6 hPa 0,0 l/m 3,6 km/h (1 Bft) W 270 -1,6 C 1,1 C
06.01.2012 19:27 1,1 C 82 % 1015,6 hPa 0,0 l/m 3,2 km/h (1 Bft) W 270 -1,6 C 1,1 C
06.01.2012 19:32 1,2 C 83 % 1015,7 hPa 0,0 l/m 5,8 km/h (2 Bft) W-SW 247 -1,4 C -0,6 C
06.01.2012 19:37 1,2 C 83 % 1016,0 hPa 0,0 l/m 8,6 km/h (2 Bft) W-SW 247 -1,4 C -1,5 C
06.01.2012 19:42 1,2 C 83 % 1016,0 hPa 0,0 l/m 5,8 km/h (2 Bft) W-SW 247 -1,4 C -0,6 C
06.01.2012 19:47 1,2 C 83 % 1016,1 hPa 0,0 l/m 8,6 km/h (2 Bft) SW 225 -1,4 C -1,5 C
06.01.2012 19:52 1,2 C 83 % 1015,9 hPa 0,0 l/m 8,3 km/h (2 Bft) W 270 -1,4 C -1,4 C
06.01.2012 19:57 1,2 C 83 % 1015,9 hPa 0,0 l/m 4,7 km/h (1 Bft) W-SW 247 -1,4 C -0,1 C
06.01.2012 20:02 1,3 C 83 % 1016,1 hPa 0,0 l/m 4,0 km/h (1 Bft) W-SW 247 -1,3 C 1,3 C
06.01.2012 20:07 1,3 C 83 % 1016,0 hPa 0,0 l/m 2,5 km/h (1 Bft) W-SW 247 -1,3 C 1,3 C
06.01.2012 20:12 1,3 C 83 % 1015,9 hPa 0,0 l/m 11,2 km/h (2 Bft) W 270 -1,3 C -2,0 C
06.01.2012 20:17 1,3 C 83 % 1016,1 hPa 0,0 l/m 9,4 km/h (2 Bft) W-SW 247 -1,3 C -1,6 C
06.01.2012 20:22 1,3 C 84 % 1016,0 hPa 0,0 l/m 11,9 km/h (2 Bft) W-SW 247 -1,1 C -2,2 C
06.01.2012 20:27 1,3 C 84 % 1016,2 hPa 0,0 l/m 7,6 km/h (2 Bft) W-SW 247 -1,1 C -1,1 C
06.01.2012 20:32 1,3 C 84 % 1016,2 hPa 0,0 l/m 6,5 km/h (2 Bft) W-SW 247 -1,1 C -0,7 C
06.01.2012 20:37 1,4 C 84 % 1016,3 hPa 0,0 l/m 11,2 km/h (2 Bft) SW 225 -1,0 C -1,9 C
06.01.2012 20:42 1,3 C 84 % 1016,1 hPa 0,0 l/m 8,3 km/h (2 Bft) W 270 -1,1 C -1,3 C
06.01.2012 20:47 1,3 C 85 % 1016,1 hPa 0,0 l/m 4,7 km/h (1 Bft) SW 225 -0,9 C 0,0 C
06.01.2012 20:52 1,3 C 85 % 1015,9 hPa 0,0 l/m 9,4 km/h (2 Bft) W-SW 247 -0,9 C -1,6 C
06.01.2012 20:57 1,3 C 85 % 1016,0 hPa 0,0 l/m 10,8 km/h (2 Bft) SW 225 -0,9 C -2,0 C
06.01.2012 21:02 1,3 C 85 % 1016,1 hPa 0,0 l/m 8,3 km/h (2 Bft) W 270 -0,9 C -1,3 C
06.01.2012 21:07 1,3 C 85 % 1016,3 hPa 0,0 l/m 13,3 km/h (3 Bft) W-NW 292 -0,9 C -2,5 C
06.01.2012 21:12 1,3 C 85 % 1016,1 hPa 0,0 l/m 6,1 km/h (2 Bft) W-SW 247 -0,9 C -0,6 C
06.01.2012 21:17 1,3 C 86 % 1016,2 hPa 0,0 l/m 5,8 km/h (2 Bft) W 270 -0,8 C -0,5 C
06.01.2012 21:22 1,4 C 86 % 1016,0 hPa 0,0 l/m 5,8 km/h (2 Bft) W 270 -0,7 C -0,3 C
06.01.2012 21:27 1,4 C 86 % 1016,3 hPa 0,0 l/m 7,9 km/h (2 Bft) W-SW 247 -0,7 C -1,1 C
06.01.2012 21:32 1,5 C 87 % 1016,3 hPa 0,0 l/m 12,6 km/h (3 Bft) W 270 -0,4 C -2,1 C
06.01.2012 21:37 1,6 C 87 % 1016,5 hPa 0,0 l/m 18,0 km/h (3 Bft) W-SW 247 -0,3 C -2,9 C
06.01.2012 21:42 1,8 C 87 % 1016,4 hPa 0,0 l/m 4,3 km/h (1 Bft) W 270 -0,1 C 1,8 C
06.01.2012 21:47 1,8 C 87 % 1016,4 hPa 0,0 l/m 7,6 km/h (2 Bft) NW 315 -0,1 C -0,5 C
06.01.2012 21:52 1,9 C 88 % 1016,3 hPa 0,0 l/m 5,0 km/h (1 Bft) W 270 0,1 C 0,6 C
06.01.2012 21:57 1,9 C 88 % 1016,2 hPa 0,0 l/m 6,1 km/h (2 Bft) W-SW 247 0,1 C 0,1 C
06.01.2012 22:02 1,9 C 88 % 1016,2 hPa 0,0 l/m 6,5 km/h (2 Bft) W 270 0,1 C -0,0 C
06.01.2012 22:07 2,1 C 88 % 1016,2 hPa 0,0 l/m 11,9 km/h (2 Bft) W 270 0,3 C -1,2 C
06.01.2012 22:12 2,1 C 88 % 1015,9 hPa 0,0 l/m 5,0 km/h (1 Bft) W 270 0,3 C 0,8 C
06.01.2012 22:17 2,1 C 88 % 1016,1 hPa 0,0 l/m 8,3 km/h (2 Bft) W 270 0,3 C -0,4 C
06.01.2012 22:22 2,1 C 88 % 1016,3 hPa 0,0 l/m 8,3 km/h (2 Bft) W-SW 247 0,3 C -0,4 C
06.01.2012 22:27 2,2 C 88 % 1016,2 hPa 0,0 l/m 12,6 km/h (3 Bft) W 270 0,4 C -1,3 C
06.01.2012 22:32 2,2 C 89 % 1016,3 hPa 0,0 l/m 9,4 km/h (2 Bft) W 270 0,6 C -0,5 C
06.01.2012 22:37 2,2 C 89 % 1016,2 hPa 0,0 l/m 6,1 km/h (2 Bft) W-NW 292 0,6 C 0,5 C
06.01.2012 22:42 2,3 C 89 % 1016,2 hPa 0,0 l/m 14,0 km/h (3 Bft) W-SW 247 0,7 C -1,4 C
06.01.2012 22:47 2,3 C 89 % 1016,0 hPa 0,0 l/m 6,5 km/h (2 Bft) SW 225 0,7 C 0,4 C
06.01.2012 22:52 2,4 C 89 % 1016,3 hPa 0,0 l/m 9,4 km/h (2 Bft) NW 315 0,8 C -0,3 C
06.01.2012 22:57 2,4 C 90 % 1016,2 hPa 0,0 l/m 4,0 km/h (1 Bft) W 270 0,9 C 2,4 C
06.01.2012 23:02 2,4 C 90 % 1016,1 hPa 0,0 l/m 9,7 km/h (2 Bft) W-NW 292 0,9 C -0,4 C
06.01.2012 23:07 2,5 C 90 % 1016,1 hPa 0,0 l/m 16,2 km/h (3 Bft) W-SW 247 1,0 C -1,5 C
06.01.2012 23:12 2,6 C 90 % 1016,1 hPa 0,0 l/m 6,1 km/h (2 Bft) W-SW 247 1,1 C 0,9 C
06.01.2012 23:17 2,6 C 90 % 1016,1 hPa 0,0 l/m 11,2 km/h (2 Bft) W-SW 247 1,1 C -0,5 C
06.01.2012 23:22 2,6 C 90 % 1016,1 hPa 0,0 l/m 4,7 km/h (1 Bft) W 270 1,1 C 1,5 C
06.01.2012 23:27 2,6 C 90 % 1016,0 hPa 0,0 l/m 6,8 km/h (2 Bft) S-SW 202 1,1 C 0,7 C
06.01.2012 23:32 2,6 C 90 % 1016,0 hPa 0,0 l/m 9,7 km/h (2 Bft) NW 315 1,1 C -0,1 C
06.01.2012 23:37 2,6 C 90 % 1016,1 hPa 0,0 l/m 8,3 km/h (2 Bft) W 270 1,1 C 0,2 C
06.01.2012 23:42 2,6 C 90 % 1016,0 hPa 0,0 l/m 8,3 km/h (2 Bft) W 270 1,1 C 0,2 C
06.01.2012 23:47 2,6 C 90 % 1016,0 hPa 0,0 l/m 19,4 km/h (3 Bft) W-SW 247 1,1 C -1,9 C
06.01.2012 23:52 2,6 C 91 % 1016,0 hPa 0,0 l/m 17,6 km/h (3 Bft) SW 225 1,3 C -1,6 C
06.01.2012 23:57 2,6 C 91 % 1015,8 hPa 0,0 l/m 15,8 km/h (3 Bft) W-SW 247 1,3 C -1,3 C
_ Min-Zeit 19:12 14:47 00:02 - 09:22 - - 19:12 08:37
Minimum _ 1,1 C 77 % 988,1 hPa - 0,0 km/h (0 Bft) - - -1,6 C -3,4 C
_ Max-Zeit 01:12 23:52 21:37 00:12 00:17 - - 01:22 03:42
Maximum _ 4,5 C 91 % 1016,5 hPa 0,5 l/m 36,0 km/h
W-NW (5 Bft)
- - 2,5 C 3,6 C
Durchschnitt _ 2,6 C 84 % 1006,6 hPa #1,0 l/m 9,4 km/h (2 Bft) NW - 0,1 C 0,3 C
(c) by David Heller